createdAt,value
2018-07-09T00:00:08.864Z,16.43
2018-07-09T00:02:37.358Z,16.45
2018-07-09T00:05:05.960Z,16.47
2018-07-09T00:07:34.410Z,16.44
2018-07-09T00:10:02.825Z,16.40
2018-07-09T00:12:31.331Z,16.12
2018-07-09T00:14:59.908Z,16.21
2018-07-09T00:17:28.367Z,16.04
2018-07-09T00:19:56.811Z,15.89
2018-07-09T00:22:25.385Z,15.94
2018-07-09T00:24:53.854Z,16.00
2018-07-09T00:27:22.356Z,15.95
2018-07-09T00:29:50.920Z,15.97
2018-07-09T00:32:19.744Z,15.82
2018-07-09T00:34:48.199Z,15.85
2018-07-09T00:37:16.690Z,15.72
2018-07-09T00:39:45.251Z,15.75
2018-07-09T00:42:13.680Z,15.79
2018-07-09T00:44:42.203Z,15.80
2018-07-09T00:47:10.699Z,15.60
2018-07-09T00:49:39.201Z,15.62
2018-07-09T00:52:07.666Z,15.42
2018-07-09T00:54:36.042Z,15.54
2018-07-09T00:57:04.578Z,15.51
2018-07-09T00:59:33.135Z,15.41
2018-07-09T01:02:01.646Z,15.33
2018-07-09T01:04:30.087Z,15.29
2018-07-09T01:06:58.575Z,15.37
2018-07-09T01:09:27.074Z,15.17
2018-07-09T01:12:06.560Z,15.29
2018-07-09T01:14:35.048Z,15.13
2018-07-09T01:17:03.561Z,15.17
2018-07-09T01:19:32.023Z,15.07
2018-07-09T01:22:00.567Z,14.92
2018-07-09T01:24:29.153Z,14.99
2018-07-09T01:26:57.726Z,14.80
2018-07-09T01:29:26.380Z,14.86
2018-07-09T01:31:54.964Z,14.70
2018-07-09T01:34:23.488Z,14.76
2018-07-09T01:36:52.004Z,14.53
2018-07-09T01:39:20.537Z,14.57
2018-07-09T01:41:49.020Z,14.46
2018-07-09T01:44:17.629Z,14.61
2018-07-09T01:46:46.164Z,14.69
2018-07-09T01:49:14.634Z,14.63
2018-07-09T01:51:43.162Z,14.60
2018-07-09T01:54:11.688Z,14.63
2018-07-09T01:56:40.180Z,14.56
2018-07-09T01:59:08.721Z,14.57
2018-07-09T02:01:37.346Z,14.61
2018-07-09T02:04:05.944Z,14.41
2018-07-09T02:06:34.653Z,14.47
2018-07-09T02:09:05.078Z,14.21
2018-07-09T02:11:33.543Z,14.27
2018-07-09T02:14:02.018Z,14.24
2018-07-09T02:16:30.395Z,14.22
2018-07-09T02:18:58.803Z,14.07
2018-07-09T02:21:27.450Z,14.11
2018-07-09T02:23:56.040Z,14.06
2018-07-09T02:26:24.713Z,14.08
2018-07-09T02:28:53.375Z,14.00
2018-07-09T02:31:22.132Z,13.97
2018-07-09T02:33:50.849Z,13.87
2018-07-09T02:36:19.327Z,13.69
2018-07-09T02:38:47.859Z,13.67
2018-07-09T02:41:16.332Z,13.63
2018-07-09T02:43:44.841Z,13.65
2018-07-09T02:46:13.312Z,13.65
2018-07-09T02:48:41.757Z,13.56
2018-07-09T02:51:10.187Z,13.60
2018-07-09T02:53:38.768Z,13.49
2018-07-09T02:56:07.348Z,13.54
2018-07-09T02:58:35.908Z,13.46
2018-07-09T03:01:04.564Z,13.37
2018-07-09T03:03:32.873Z,13.40
2018-07-09T03:06:01.334Z,13.47
2018-07-09T03:08:29.744Z,13.43
2018-07-09T03:10:58.217Z,13.31
2018-07-09T03:13:26.643Z,13.31
2018-07-09T03:15:55.147Z,13.25
2018-07-09T03:18:23.631Z,13.33
2018-07-09T03:20:52.067Z,13.22
2018-07-09T03:23:20.482Z,13.27
2018-07-09T03:25:48.900Z,13.23
2018-07-09T03:28:17.332Z,13.24
2018-07-09T03:30:45.807Z,13.21
2018-07-09T03:33:14.289Z,13.14
2018-07-09T03:35:42.860Z,13.20
2018-07-09T03:38:11.355Z,13.23
2018-07-09T03:40:39.877Z,13.13
2018-07-09T03:43:08.300Z,13.13
2018-07-09T03:45:36.776Z,13.18
2018-07-09T03:48:05.325Z,13.21
2018-07-09T03:50:33.863Z,13.14
2018-07-09T03:53:02.320Z,13.17
2018-07-09T03:55:30.758Z,13.12
2018-07-09T03:57:59.218Z,13.06
2018-07-09T04:00:27.698Z,13.06
2018-07-09T04:02:56.235Z,13.22
2018-07-09T04:05:24.664Z,13.20
2018-07-09T04:07:53.062Z,13.31
2018-07-09T04:10:21.537Z,13.35
2018-07-09T04:12:50.106Z,13.33
2018-07-09T04:15:18.711Z,13.48
2018-07-09T04:17:47.192Z,13.48
2018-07-09T04:20:15.714Z,13.56
2018-07-09T04:22:44.212Z,13.66
2018-07-09T04:25:12.674Z,13.58
2018-07-09T04:27:41.176Z,13.69
2018-07-09T04:30:09.603Z,13.67
2018-07-09T04:32:38.013Z,13.59
2018-07-09T04:35:06.512Z,13.70
2018-07-09T04:37:35.418Z,13.90
2018-07-09T04:40:04.127Z,13.99
2018-07-09T04:42:32.597Z,14.11
2018-07-09T04:45:01.007Z,14.14
2018-07-09T04:47:29.464Z,14.22
2018-07-09T04:49:57.950Z,14.26
2018-07-09T04:52:26.399Z,14.31
2018-07-09T04:54:55.075Z,14.35
2018-07-09T04:57:23.567Z,14.25
2018-07-09T04:59:52.044Z,14.38
2018-07-09T05:02:20.538Z,14.27
2018-07-09T05:04:49.060Z,14.34
2018-07-09T05:07:17.517Z,14.39
2018-07-09T05:09:45.978Z,14.56
2018-07-09T05:12:14.551Z,14.66
2018-07-09T05:14:42.998Z,14.69
2018-07-09T05:17:11.427Z,14.88
2018-07-09T05:19:39.999Z,14.93
2018-07-09T05:22:08.547Z,15.03
2018-07-09T05:24:36.980Z,15.12
2018-07-09T05:27:05.758Z,15.13
2018-07-09T05:29:34.194Z,15.14
2018-07-09T05:32:02.655Z,15.29
2018-07-09T05:34:31.201Z,15.31
2018-07-09T05:36:59.641Z,15.36
2018-07-09T05:39:28.163Z,15.40
2018-07-09T05:41:56.690Z,15.52
2018-07-09T05:44:25.529Z,15.81
2018-07-09T05:46:54.087Z,16.34
2018-07-09T05:49:22.848Z,16.52
2018-07-09T05:51:51.329Z,16.71
2018-07-09T05:54:19.748Z,16.53
2018-07-09T05:56:48.249Z,16.55
2018-07-09T05:59:16.695Z,16.32
2018-07-09T06:01:45.211Z,16.19
2018-07-09T06:04:13.698Z,16.54
2018-07-09T06:06:42.192Z,17.02
2018-07-09T06:09:11.170Z,17.33
2018-07-09T06:11:39.681Z,17.83
2018-07-09T06:14:08.151Z,18.01
2018-07-09T06:16:36.748Z,17.61
2018-07-09T06:19:05.387Z,17.52
2018-07-09T06:21:33.843Z,17.96
2018-07-09T06:24:02.470Z,18.23
2018-07-09T06:26:30.987Z,17.64
2018-07-09T06:28:59.459Z,17.55
2018-07-09T06:31:27.951Z,17.56
2018-07-09T06:33:56.404Z,17.13
2018-07-09T06:36:24.888Z,16.81
2018-07-09T06:38:53.325Z,16.88
2018-07-09T06:41:21.787Z,16.99
2018-07-09T06:43:50.290Z,17.02
2018-07-09T06:46:18.751Z,17.26
2018-07-09T06:48:47.298Z,17.46
2018-07-09T06:51:15.753Z,18.03
2018-07-09T06:53:44.216Z,18.25
2018-07-09T06:56:12.866Z,18.54
2018-07-09T06:58:41.352Z,18.41
2018-07-09T07:01:09.835Z,18.23
2018-07-09T07:03:38.275Z,18.33
2018-07-09T07:06:06.775Z,18.77
2018-07-09T07:08:35.192Z,18.65
2018-07-09T07:11:03.669Z,18.57
2018-07-09T07:13:32.137Z,18.70
2018-07-09T07:16:00.533Z,18.84
2018-07-09T07:18:28.944Z,19.02
2018-07-09T07:20:57.405Z,19.22
2018-07-09T07:23:25.819Z,19.53
2018-07-09T07:25:54.390Z,19.77
2018-07-09T07:28:22.963Z,20.06
2018-07-09T07:30:51.469Z,20.32
2018-07-09T07:33:20.017Z,20.78
2018-07-09T07:35:48.492Z,21.35
2018-07-09T07:38:16.989Z,21.35
2018-07-09T07:40:45.496Z,21.70
2018-07-09T07:43:13.915Z,21.00
2018-07-09T07:45:42.356Z,21.77
2018-07-09T07:48:10.893Z,22.00
2018-07-09T07:50:39.540Z,22.46
2018-07-09T07:53:07.852Z,22.19
2018-07-09T07:55:36.320Z,22.27
2018-07-09T07:58:04.806Z,22.35
2018-07-09T08:00:33.240Z,22.61
2018-07-09T08:03:01.785Z,21.53
2018-07-09T08:05:30.162Z,21.68
2018-07-09T08:07:58.646Z,21.88
2018-07-09T08:10:27.159Z,22.11
2018-07-09T08:15:24.206Z,22.20
2018-07-09T08:17:52.648Z,22.03
2018-07-09T08:20:21.073Z,21.90
2018-07-09T08:22:49.505Z,21.91
2018-07-09T08:25:17.986Z,22.04
2018-07-09T08:27:46.496Z,21.89
2018-07-09T08:30:15.164Z,22.13
2018-07-09T08:32:43.656Z,21.99
2018-07-09T08:35:12.089Z,22.20
2018-07-09T08:40:39.334Z,22.19
2018-07-09T08:43:07.889Z,21.96
2018-07-09T08:45:36.433Z,21.98
2018-07-09T08:48:04.837Z,22.07
2018-07-09T08:50:33.362Z,22.29
2018-07-09T08:53:01.807Z,22.28
2018-07-09T08:55:30.231Z,22.25
2018-07-09T08:57:58.707Z,22.39
2018-07-09T09:00:27.556Z,22.27
2018-07-09T09:02:56.045Z,21.94
2018-07-09T09:05:24.623Z,22.24
2018-07-09T09:07:53.149Z,22.33
2018-07-09T09:10:21.593Z,22.09
2018-07-09T09:12:50.108Z,22.17
2018-07-09T09:15:18.618Z,22.40
2018-07-09T09:17:47.252Z,22.28
2018-07-09T09:20:15.755Z,22.53
2018-07-09T09:22:44.278Z,22.79
2018-07-09T09:25:12.818Z,22.45
2018-07-09T09:27:41.421Z,22.62
2018-07-09T09:30:09.964Z,22.41
2018-07-09T09:32:38.390Z,22.30
2018-07-09T09:35:06.968Z,22.43
2018-07-09T09:37:35.529Z,22.20
2018-07-09T09:40:04.060Z,21.94
2018-07-09T09:42:32.588Z,21.73
2018-07-09T09:45:01.047Z,21.91
2018-07-09T09:47:29.527Z,22.04
2018-07-09T09:49:58.003Z,21.73
2018-07-09T09:52:26.425Z,21.74
2018-07-09T09:54:55.127Z,21.49
2018-07-09T09:57:23.677Z,21.26
2018-07-09T09:59:52.218Z,21.41
2018-07-09T10:02:20.719Z,21.49
2018-07-09T10:04:49.167Z,21.60
2018-07-09T10:07:17.702Z,21.95
2018-07-09T10:09:46.547Z,21.90
2018-07-09T10:12:15.089Z,22.24
2018-07-09T10:14:43.625Z,22.43
2018-07-09T10:17:12.087Z,22.22
2018-07-09T10:19:41.048Z,22.37
2018-07-09T10:22:09.619Z,22.31
2018-07-09T10:24:38.104Z,21.73
2018-07-09T10:27:06.818Z,21.71
2018-07-09T10:29:35.320Z,21.85
2018-07-09T10:32:03.836Z,21.54
2018-07-09T10:34:32.453Z,21.63
2018-07-09T10:37:01.606Z,21.50
2018-07-09T10:39:30.152Z,21.33
2018-07-09T10:41:58.665Z,21.44
2018-07-09T10:44:27.091Z,20.96
2018-07-09T10:46:55.576Z,20.99
2018-07-09T10:49:24.077Z,21.03
2018-07-09T10:51:52.653Z,21.13
2018-07-09T10:54:21.130Z,21.16
2018-07-09T10:56:49.700Z,21.48
2018-07-09T10:59:18.187Z,21.59
2018-07-09T11:01:46.667Z,21.89
2018-07-09T11:04:15.297Z,21.78
2018-07-09T11:06:43.734Z,22.11
2018-07-09T11:09:12.359Z,22.15
2018-07-09T11:11:40.778Z,22.27
2018-07-09T11:14:09.261Z,22.50
2018-07-09T11:16:37.858Z,22.50
2018-07-09T11:19:06.386Z,22.43
2018-07-09T11:21:34.834Z,22.46
2018-07-09T11:24:03.338Z,22.39
2018-07-09T11:26:31.794Z,22.65
2018-07-09T11:29:00.304Z,22.57
2018-07-09T11:31:28.833Z,22.61
2018-07-09T11:33:57.451Z,22.56
2018-07-09T11:36:25.993Z,22.93
2018-07-09T11:38:54.428Z,22.97
2018-07-09T11:41:22.886Z,22.98
2018-07-09T11:43:51.334Z,22.79
2018-07-09T11:46:19.741Z,22.84
2018-07-09T11:48:48.173Z,22.91
2018-07-09T11:51:16.695Z,22.78
2018-07-09T11:53:45.196Z,22.73
2018-07-09T11:56:13.737Z,22.72
2018-07-09T11:58:42.213Z,22.61
2018-07-09T12:01:10.664Z,22.98
2018-07-09T12:03:39.104Z,23.31
2018-07-09T12:06:07.674Z,23.46
2018-07-09T12:08:36.097Z,23.34
2018-07-09T12:11:04.528Z,23.18
2018-07-09T12:13:33.111Z,23.08
2018-07-09T12:16:01.558Z,23.10
2018-07-09T12:18:30.078Z,23.22
2018-07-09T12:20:58.570Z,23.01
2018-07-09T12:23:26.987Z,23.13
2018-07-09T12:25:55.479Z,23.13
2018-07-09T12:28:24.031Z,23.14
2018-07-09T12:30:52.600Z,23.51
2018-07-09T12:33:21.085Z,23.34
2018-07-09T12:35:49.582Z,23.47
2018-07-09T12:38:18.021Z,23.39
2018-07-09T12:40:46.626Z,23.25
2018-07-09T12:43:15.060Z,23.25
2018-07-09T12:45:43.489Z,23.00
2018-07-09T12:48:11.912Z,22.69
2018-07-09T12:50:40.470Z,22.98
2018-07-09T12:53:09.054Z,22.98
2018-07-09T12:55:37.476Z,22.90
2018-07-09T12:58:06.059Z,22.84
2018-07-09T13:00:34.542Z,22.74
2018-07-09T13:03:03.193Z,22.71
2018-07-09T13:05:31.867Z,22.77
2018-07-09T13:08:00.382Z,22.82
2018-07-09T13:10:28.855Z,23.12
2018-07-09T13:12:57.302Z,22.90
2018-07-09T13:15:25.792Z,23.09
2018-07-09T13:17:54.302Z,23.05
2018-07-09T13:20:22.771Z,23.17
2018-07-09T13:22:51.266Z,23.12
2018-07-09T13:25:19.874Z,23.31
2018-07-09T13:27:48.375Z,23.45
2018-07-09T13:30:16.851Z,23.40
2018-07-09T13:32:45.331Z,23.43
2018-07-09T13:35:13.838Z,23.30
2018-07-09T13:37:42.322Z,23.15
2018-07-09T13:40:10.814Z,23.18
2018-07-09T13:42:39.439Z,23.09
2018-07-09T13:45:07.951Z,23.20
2018-07-09T13:47:36.516Z,23.07
2018-07-09T13:50:05.101Z,23.10
2018-07-09T13:52:33.579Z,23.12
2018-07-09T13:55:02.107Z,23.22
2018-07-09T13:57:30.647Z,23.18
2018-07-09T13:59:59.158Z,23.36
2018-07-09T14:02:27.625Z,23.47
2018-07-09T14:04:56.078Z,23.70
2018-07-09T14:07:24.520Z,23.61
2018-07-09T14:09:53.023Z,23.55
2018-07-09T14:12:21.534Z,23.38
2018-07-09T14:14:50.054Z,23.41
2018-07-09T14:17:18.504Z,23.47
2018-07-09T14:20:24.529Z,23.46
2018-07-09T14:22:52.989Z,23.41
2018-07-09T14:25:21.493Z,23.54
2018-07-09T14:27:50.035Z,23.54
2018-07-09T14:30:18.795Z,23.75
2018-07-09T14:32:47.281Z,23.87
2018-07-09T14:35:15.738Z,23.99
2018-07-09T14:37:44.197Z,24.13
2018-07-09T14:40:12.600Z,23.91
2018-07-09T14:42:41.095Z,24.11
2018-07-09T14:45:09.537Z,24.03
2018-07-09T14:47:38.005Z,23.76
2018-07-09T14:50:06.701Z,23.62
2018-07-09T14:52:35.186Z,23.48
2018-07-09T14:55:03.664Z,23.68
2018-07-09T14:57:32.156Z,23.44
2018-07-09T15:00:00.638Z,23.66
2018-07-09T15:02:29.162Z,23.76
2018-07-09T15:04:57.606Z,23.66
2018-07-09T15:07:26.178Z,23.50
2018-07-09T15:09:54.617Z,23.61
2018-07-09T15:12:23.083Z,23.77
2018-07-09T15:14:51.578Z,23.78
2018-07-09T15:17:20.111Z,23.76
2018-07-09T15:19:48.716Z,23.63
2018-07-09T15:22:17.224Z,23.48
2018-07-09T15:24:45.774Z,23.41
2018-07-09T15:27:14.311Z,23.10
2018-07-09T15:29:42.900Z,22.96
2018-07-09T15:32:20.715Z,22.80
2018-07-09T15:34:49.173Z,22.75
2018-07-09T15:37:17.665Z,22.78
2018-07-09T15:39:46.275Z,22.78
2018-07-09T15:42:14.823Z,22.67
2018-07-09T15:44:43.312Z,22.62
2018-07-09T15:47:11.790Z,22.64
2018-07-09T15:49:40.893Z,22.67
2018-07-09T15:52:09.449Z,22.65
2018-07-09T15:54:37.903Z,22.63
2018-07-09T15:57:06.505Z,22.49
2018-07-09T15:59:35.007Z,22.46
2018-07-09T16:02:03.539Z,22.34
2018-07-09T16:04:32.023Z,22.21
2018-07-09T16:07:00.501Z,22.33
2018-07-09T16:09:28.919Z,22.33
2018-07-09T16:11:57.401Z,22.32
2018-07-09T16:14:26.053Z,22.09
2018-07-09T16:16:54.545Z,22.09
2018-07-09T16:19:23.025Z,22.07
2018-07-09T16:21:51.548Z,21.97
2018-07-09T16:24:19.982Z,21.97
2018-07-09T16:26:48.452Z,21.94
2018-07-09T16:29:17.013Z,21.82
2018-07-09T16:31:45.346Z,21.73
2018-07-09T16:34:13.768Z,21.55
2018-07-09T16:36:42.208Z,21.63
2018-07-09T16:39:10.716Z,21.56
2018-07-09T16:41:39.312Z,21.59
2018-07-09T16:44:07.794Z,21.59
2018-07-09T16:46:36.230Z,21.54
2018-07-09T16:49:04.754Z,21.34
2018-07-09T16:51:33.231Z,21.49
2018-07-09T16:54:01.724Z,21.37
2018-07-09T16:56:30.212Z,21.20
2018-07-09T16:58:58.772Z,21.33
2018-07-09T17:01:27.224Z,21.22
2018-07-09T17:03:55.669Z,21.03
2018-07-09T17:06:24.302Z,20.86
2018-07-09T17:08:52.820Z,20.80
2018-07-09T17:11:21.360Z,20.91
2018-07-09T17:13:49.890Z,20.86
2018-07-09T17:16:18.389Z,20.76
2018-07-09T17:18:46.908Z,20.52
2018-07-09T17:21:15.421Z,20.52
2018-07-09T17:23:44.062Z,20.55
2018-07-09T17:26:12.548Z,20.59
2018-07-09T17:28:41.127Z,20.42
2018-07-09T17:31:09.607Z,20.12
2018-07-09T17:33:38.082Z,20.15
2018-07-09T17:36:06.642Z,20.12
2018-07-09T17:38:35.112Z,20.05
2018-07-09T17:41:03.575Z,20.14
2018-07-09T17:43:31.995Z,20.02
2018-07-09T17:46:00.660Z,20.03
2018-07-09T17:48:29.146Z,20.11
2018-07-09T17:50:57.827Z,19.98
2018-07-09T17:53:26.315Z,19.98
2018-07-09T17:55:54.781Z,20.04
2018-07-09T17:58:23.384Z,20.01
2018-07-09T18:00:51.863Z,19.75
2018-07-09T18:03:20.415Z,19.67
2018-07-09T18:05:49.032Z,19.67
2018-07-09T18:08:17.497Z,19.67
2018-07-09T18:10:46.075Z,19.69
2018-07-09T18:13:14.577Z,19.74
2018-07-09T18:15:43.014Z,19.72
2018-07-09T18:18:11.496Z,19.66
2018-07-09T18:20:39.940Z,19.58
2018-07-09T18:23:08.433Z,19.55
2018-07-09T18:25:36.823Z,19.52
2018-07-09T18:28:05.293Z,19.33
2018-07-09T18:30:33.811Z,19.39
2018-07-09T18:33:02.352Z,19.30
2018-07-09T18:35:30.812Z,19.18
2018-07-09T18:37:59.815Z,19.18
2018-07-09T18:40:28.671Z,19.15
2018-07-09T18:42:57.149Z,18.99
2018-07-09T18:45:25.580Z,18.99
2018-07-09T18:47:54.079Z,18.88
2018-07-09T18:50:22.562Z,18.90
2018-07-09T18:52:51.063Z,18.97
2018-07-09T18:55:19.662Z,18.96
2018-07-09T18:57:48.247Z,18.95
2018-07-09T19:00:16.831Z,18.70
2018-07-09T19:02:45.706Z,18.71
2018-07-09T19:05:14.287Z,18.69
2018-07-09T19:07:42.789Z,18.59
2018-07-09T19:10:11.325Z,18.56
2018-07-09T19:12:39.820Z,18.48
2018-07-09T19:15:09.152Z,18.49
2018-07-09T19:17:58.904Z,18.41
2018-07-09T19:20:38.476Z,18.21
2018-07-09T19:23:06.767Z,18.18
2018-07-09T19:25:35.105Z,18.19
2018-07-09T19:28:02.927Z,18.08
2018-07-09T19:30:30.170Z,18.09
2018-07-09T19:32:57.385Z,18.08
2018-07-09T19:35:24.752Z,18.01
2018-07-09T19:37:52.501Z,17.81
2018-07-09T19:40:19.264Z,17.76
2018-07-09T19:42:46.500Z,17.84
2018-07-09T19:45:13.756Z,17.73
2018-07-09T19:47:41.025Z,17.64
2018-07-09T19:50:08.298Z,17.74
2018-07-09T19:52:35.556Z,17.61
2018-07-09T19:55:02.804Z,17.57
2018-07-09T19:57:30.057Z,17.63
2018-07-09T19:59:57.296Z,17.60
2018-07-09T20:02:24.606Z,17.65
2018-07-09T20:04:51.880Z,17.60
2018-07-09T20:10:22.096Z,17.57
2018-07-09T20:12:54.655Z,17.46
2018-07-09T20:15:27.153Z,17.57
2018-07-09T20:17:54.418Z,17.57
2018-07-09T20:20:21.680Z,17.52
2018-07-09T20:22:48.967Z,17.44
2018-07-09T20:25:16.239Z,17.47
2018-07-09T20:27:43.499Z,17.49
2018-07-09T20:30:10.769Z,17.52
2018-07-09T20:32:38.036Z,17.55
2018-07-09T20:35:05.317Z,17.47
2018-07-09T20:37:32.598Z,17.46
2018-07-09T20:39:59.909Z,17.42
2018-07-09T20:42:27.243Z,17.28
2018-07-09T20:44:54.800Z,17.25
2018-07-09T20:47:22.047Z,17.23
2018-07-09T20:49:49.360Z,17.13
2018-07-09T20:52:16.631Z,17.19
2018-07-09T20:54:43.892Z,17.16
2018-07-09T20:57:11.244Z,17.09
2018-07-09T20:59:38.500Z,17.09
2018-07-09T21:02:05.849Z,17.02
2018-07-09T21:04:33.432Z,17.03
2018-07-09T21:07:02.025Z,17.00
2018-07-09T21:09:30.204Z,17.04
2018-07-09T21:11:57.945Z,17.01
2018-07-09T21:14:25.211Z,16.95
2018-07-09T21:16:52.474Z,16.90
2018-07-09T21:19:20.687Z,16.94
2018-07-09T21:21:47.927Z,16.90
2018-07-09T21:24:15.207Z,16.89
2018-07-09T21:26:42.445Z,16.73
2018-07-09T21:29:09.809Z,16.70
2018-07-09T21:31:37.025Z,16.64
2018-07-09T21:34:04.285Z,16.67
2018-07-09T21:36:31.548Z,16.66
2018-07-09T21:38:58.810Z,16.65
2018-07-09T21:41:26.066Z,16.61
2018-07-09T21:43:53.315Z,16.61
2018-07-09T21:46:20.580Z,16.59
2018-07-09T21:48:47.854Z,16.59
2018-07-09T21:51:15.109Z,16.58
2018-07-09T21:53:42.388Z,16.61
2018-07-09T21:56:09.655Z,16.56
2018-07-09T21:58:36.962Z,16.59
2018-07-09T22:01:04.229Z,16.56
2018-07-09T22:03:31.465Z,16.60
2018-07-09T22:05:58.732Z,16.54
2018-07-09T22:08:25.971Z,16.56
2018-07-09T22:10:53.217Z,16.49
2018-07-09T22:13:20.480Z,16.46
2018-07-09T22:15:47.709Z,16.48
2018-07-09T22:18:15.008Z,16.50
2018-07-09T22:20:42.294Z,16.51
2018-07-09T22:23:09.571Z,16.56
2018-07-09T22:25:36.916Z,16.45
2018-07-09T22:28:04.246Z,16.49
2018-07-09T22:30:32.760Z,16.45
2018-07-09T22:33:01.220Z,16.43
2018-07-09T22:35:29.870Z,16.39
2018-07-09T22:37:58.317Z,16.38
2018-07-09T22:40:26.770Z,16.39
2018-07-09T22:42:55.270Z,16.34
2018-07-09T22:45:23.753Z,16.35
2018-07-09T22:47:52.229Z,16.36
2018-07-09T22:50:20.749Z,16.28
2018-07-09T22:52:49.271Z,16.10
2018-07-09T22:55:28.915Z,16.12
2018-07-09T22:57:57.398Z,16.15
2018-07-09T23:00:25.915Z,16.08
2018-07-09T23:03:06.301Z,16.06
2018-07-09T23:05:34.790Z,16.01
2018-07-09T23:08:03.321Z,15.99
2018-07-09T23:13:15.235Z,16.02
2018-07-09T23:15:55.190Z,15.92
2018-07-09T23:18:39.542Z,15.93
2018-07-09T23:21:20.109Z,15.85
2018-07-09T23:23:47.381Z,15.80
2018-07-09T23:26:14.616Z,15.79
2018-07-09T23:28:41.911Z,15.76
2018-07-09T23:31:09.162Z,15.84
2018-07-09T23:33:36.415Z,15.88
2018-07-09T23:36:03.723Z,15.89
2018-07-09T23:38:30.977Z,15.85
2018-07-09T23:40:58.236Z,15.92
2018-07-09T23:43:25.476Z,15.87
2018-07-09T23:45:52.728Z,15.84
2018-07-09T23:48:20.033Z,15.81
2018-07-09T23:50:47.387Z,15.84
2018-07-09T23:53:14.683Z,15.79
2018-07-09T23:55:43.642Z,15.77
2018-07-09T23:58:22.149Z,15.82
